Time;durP1;ratioP1;P1;durP2;ratioP2;P2;SDS_P1;SDS_P2;PMS_P1;PMS_P2;Temp;Humidity;BMP_temperature;BMP_pressure;BME280_temperature;BME280_humidity;BME280_pressure;Samples;Min_cycle;Max_cycle;Signal;HPM_P1;HPM_P2
2023/07/27 00:02:25;;;;;;;;;1.50;1.50;;;;;23.60;44.70;100600.06;4977648;28;45266;-40
2023/07/27 00:04:51;;;;;;;;;2.00;2.00;;;;;23.60;44.86;100594.75;4977588;28;45505;-40
2023/07/27 00:07:16;;;;;;;;;2.00;1.00;;;;;23.60;44.69;100592.94;4977273;28;45390;-41
2023/07/27 00:09:41;;;;;;;;;4.00;2.00;;;;;23.62;44.77;100584.91;4977178;28;45425;-42
2023/07/27 00:12:07;;;;;;;;;1.25;1.25;;;;;23.61;45.02;100578.75;4977241;28;45531;-43
2023/07/27 00:14:32;;;;;;;;;2.00;2.00;;;;;23.62;45.03;100587.56;4977393;28;45308;-39
2023/07/27 00:16:58;;;;;;;;;2.25;2.00;;;;;23.60;45.23;100589.47;4976488;28;60245;-40
2023/07/27 00:19:23;;;;;;;;;3.00;2.00;;;;;23.62;45.08;100582.28;4977107;28;45363;-45
2023/07/27 00:21:48;;;;;;;;;2.00;1.00;;;;;23.62;45.15;100582.28;4977240;28;45324;-42
2023/07/27 00:24:14;;;;;;;;;1.25;1.25;;;;;23.64;45.34;100588.31;4977150;28;45445;-44
2023/07/27 00:26:41;;;;;;;;;2.00;1.00;;;;;23.63;45.42;100576.84;4976901;28;45412;-44
2023/07/27 00:29:07;;;;;;;;;3.00;1.00;;;;;23.64;45.01;100575.06;4959377;28;45721;-40
2023/07/27 00:31:32;;;;;;;;;1.00;1.00;;;;;23.65;44.94;100566.16;4977111;28;45251;-40
2023/07/27 00:33:57;;;;;;;;;2.00;2.00;;;;;23.66;45.65;100561.72;4977528;28;45216;-42
2023/07/27 00:36:22;;;;;;;;;2.75;2.00;;;;;23.65;45.78;100554.72;4976812;28;45190;-41
2023/07/27 00:38:48;;;;;;;;;1.25;1.25;;;;;23.63;45.66;100558.34;4976934;28;45251;-43
2023/07/27 00:41:13;;;;;;;;;1.00;1.00;;;;;23.64;45.55;100548.63;4975887;28;45722;-41
2023/07/27 00:43:38;;;;;;;;;1.00;1.00;;;;;23.64;45.74;100543.31;4977177;28;45789;-43
2023/07/27 00:46:04;;;;;;;;;1.00;1.00;;;;;23.66;45.40;100556.44;4976805;28;45405;-42
2023/07/27 00:48:29;;;;;;;;;1.75;1.00;;;;;23.67;45.86;100555.47;4975358;28;45412;-39
2023/07/27 00:50:55;;;;;;;;;2.00;1.00;;;;;23.67;45.51;100556.31;4977297;28;45483;-42
2023/07/27 00:53:21;;;;;;;;;1.50;1.50;;;;;23.66;45.44;100541.38;4977027;28;45622;-41
2023/07/27 00:55:47;;;;;;;;;1.00;1.00;;;;;23.66;45.83;100551.97;4976641;28;45266;-41
2023/07/27 00:58:12;;;;;;;;;1.00;1.00;;;;;23.67;45.64;100548.38;4975965;28;45337;-40
2023/07/27 01:00:40;;;;;;;;;0.75;0.75;;;;;23.67;45.52;100543.06;4976768;28;45344;-43
2023/07/27 01:03:06;;;;;;;;;1.00;1.00;;;;;23.64;46.00;100535.38;4976854;28;45539;-42
2023/07/27 01:05:32;;;;;;;;;1.50;1.50;;;;;23.67;46.09;100543.06;4976027;28;45825;-40
2023/07/27 01:07:58;;;;;;;;;0.00;0.00;;;;;23.68;45.86;100538.66;4976889;28;45608;-41
2023/07/27 01:10:41;;;;;;;;;0.50;0.50;;;;;23.66;46.30;100533.44;4976516;28;45305;-43
2023/07/27 01:13:19;;;;;;;;;0.00;0.00;;;;;23.69;46.27;100537.69;4976882;28;45283;-42
2023/07/27 01:15:51;;;;;;;;;0.00;0.00;;;;;23.67;46.45;100527.19;4976447;28;45472;-43
2023/07/27 01:18:31;;;;;;;;;1.25;1.25;;;;;23.68;46.48;100528.91;4975731;28;45548;-44
2023/07/27 01:21:09;;;;;;;;;2.00;1.00;;;;;23.67;46.13;100527.19;4976895;28;45377;-41
2023/07/27 01:23:49;;;;;;;;;1.00;1.00;;;;;23.68;46.17;100528.06;4976627;28;45390;-43
2023/07/27 01:26:37;;;;;;;;;1.00;1.00;;;;;23.68;46.06;100515.66;4974661;28;47961;-42
2023/07/27 01:29:39;;;;;;;;;0.75;0.50;;;;;23.69;46.36;100520.00;4958801;28;45686;-40
2023/07/27 01:32:09;;;;;;;;;0.25;0.25;;;;;23.69;46.03;100522.66;4976312;28;45390;-40
2023/07/27 01:34:40;;;;;;;;;3.25;1.00;;;;;23.70;46.28;100520.88;4976502;28;45452;-40
2023/07/27 01:37:08;;;;;;;;;1.00;0.50;;;;;23.71;46.95;100522.53;4976223;28;45474;-42
2023/07/27 01:39:38;;;;;;;;;0.00;0.00;;;;;23.69;46.31;100520.00;4976234;28;45828;-40
2023/07/27 01:42:04;;;;;;;;;2.00;0.25;;;;;23.70;46.68;100508.47;4976232;28;45208;-43
2023/07/27 01:44:33;;;;;;;;;1.00;1.00;;;;;23.70;46.76;100505.00;4976623;28;45576;-42
2023/07/27 01:47:01;;;;;;;;;1.00;0.75;;;;;23.71;46.39;100506.66;4976307;28;46698;-47
2023/07/27 01:49:28;;;;;;;;;0.75;0.00;;;;;23.70;46.85;100491.75;4976025;28;45374;-43
2023/07/27 01:51:55;;;;;;;;;1.00;1.00;;;;;23.69;46.59;100492.72;4977234;28;45267;-44
2023/07/27 01:54:21;;;;;;;;;1.00;1.00;;;;;23.70;46.89;100495.22;4979617;28;45361;-43
2023/07/27 01:56:48;;;;;;;;;1.25;1.25;;;;;23.70;46.62;100505.00;4979196;28;46774;-40
2023/07/27 01:59:15;;;;;;;;;2.00;0.50;;;;;23.70;46.98;100484.66;4961753;28;45366;-42
2023/07/27 02:01:42;;;;;;;;;0.75;0.75;;;;;23.68;47.02;100481.28;4979328;28;45296;-41
2023/07/27 02:04:09;;;;;;;;;1.00;1.00;;;;;23.68;46.99;100475.16;4979490;28;45447;-41
2023/07/27 02:06:34;;;;;;;;;0.25;0.25;;;;;23.70;46.94;100483.81;4979069;28;45305;-44
2023/07/27 02:08:59;;;;;;;;;1.25;0.75;;;;;23.70;46.63;100479.34;4979270;28;45295;-43
2023/07/27 02:11:26;;;;;;;;;1.00;1.00;;;;;23.72;46.99;100489.81;4979210;28;45246;-44
2023/07/27 02:13:54;;;;;;;;;1.00;1.00;;;;;23.71;46.60;100486.34;4979277;28;45333;-43
2023/07/27 02:16:27;;;;;;;;;0.00;0.00;;;;;23.72;47.07;100493.31;4978929;28;46078;-40
2023/07/27 02:18:54;;;;;;;;;1.00;1.00;;;;;23.70;46.71;100476.72;4978836;28;45409;-42
2023/07/27 02:21:21;;;;;;;;;0.25;0.25;;;;;23.72;47.06;100480.09;4979006;28;45449;-40
2023/07/27 02:23:48;;;;;;;;;1.00;1.00;;;;;23.73;47.11;100480.91;4979153;28;45580;-43
2023/07/27 02:26:14;;;;;;;;;2.00;0.75;;;;;23.73;47.20;100473.84;4961174;28;47175;-42
2023/07/27 02:28:40;;;;;;;;;2.00;2.00;;;;;23.71;46.78;100475.75;4978791;28;45187;-43
2023/07/27 02:31:05;;;;;;;;;0.00;0.00;;;;;23.71;47.20;100467.81;4979025;28;45254;-42
2023/07/27 02:33:30;;;;;;;;;0.25;0.25;;;;;23.72;46.77;100472.16;4979189;28;45560;-40
2023/07/27 02:35:56;;;;;;;;;0.25;0.25;;;;;23.72;47.20;100473.94;4978614;28;46816;-43
2023/07/27 02:38:21;;;;;;;;;1.00;1.00;;;;;23.72;47.44;100466.88;4978601;28;45281;-44
2023/07/27 02:40:46;;;;;;;;;1.00;1.00;;;;;23.72;46.79;100476.59;4978783;28;45407;-41
2023/07/27 02:43:12;;;;;;;;;0.25;0.25;;;;;23.71;47.00;100465.16;4978930;28;45556;-39
2023/07/27 02:45:37;;;;;;;;;0.00;0.00;;;;;23.71;46.94;100465.16;4961102;28;45938;-42
2023/07/27 02:48:03;;;;;;;;;0.00;0.00;;;;;23.72;47.31;100463.34;4978832;28;45439;-45
2023/07/27 02:50:28;;;;;;;;;1.00;1.00;;;;;23.70;47.53;100452.91;4978468;28;45448;-42
2023/07/27 02:52:53;;;;;;;;;0.00;0.00;;;;;23.70;47.59;100458.19;4978791;28;45315;-44
2023/07/27 02:55:19;;;;;;;;;0.00;0.00;;;;;23.70;46.99;100458.19;4978220;28;46033;-43
2023/07/27 02:57:44;;;;;;;;;0.25;0.25;;;;;23.71;47.08;100470.47;4960912;28;45443;-41
2023/07/27 03:00:10;;;;;;;;;2.00;0.25;;;;;23.72;47.33;100466.00;4978431;28;45262;-47
2023/07/27 03:02:36;;;;;;;;;0.50;0.50;;;;;23.70;47.43;100468.78;4978616;28;45465;-43
2023/07/27 03:05:04;;;;;;;;;0.50;0.50;;;;;23.72;47.72;100472.16;4977497;28;45354;-47
2023/07/27 03:07:29;;;;;;;;;1.00;1.00;;;;;23.73;47.00;100475.63;4978226;28;45655;-44
2023/07/27 03:09:55;;;;;;;;;0.00;0.00;;;;;23.72;47.10;100472.16;4978125;28;45312;-43
2023/07/27 03:12:20;;;;;;;;;0.25;0.25;;;;;23.72;47.31;100463.34;4978473;28;45183;-44
2023/07/27 03:14:45;;;;;;;;;2.00;0.00;;;;;23.73;47.12;100473.84;4978098;28;45530;-40
2023/07/27 03:17:10;;;;;;;;;1.67;0.67;;;;;23.74;47.66;100470.25;4977096;28;67927;-40
2023/07/27 03:19:36;;;;;;;;;0.00;0.00;;;;;23.74;47.21;100474.66;4978555;28;45397;-41
2023/07/27 03:22:01;;;;;;;;;0.00;0.00;;;;;23.74;47.28;100464.94;4977945;28;45820;-42
2023/07/27 03:24:26;;;;;;;;;0.50;0.50;;;;;23.75;47.56;100461.34;4977858;28;45456;-42
2023/07/27 03:26:52;;;;;;;;;2.00;1.00;;;;;23.71;47.79;100454.59;4977977;28;45453;-44
2023/07/27 03:29:17;;;;;;;;;0.50;0.50;;;;;23.73;47.38;100460.63;4977932;28;45408;-41
2023/07/27 03:31:43;;;;;;;;;1.00;1.00;;;;;23.74;47.75;100466.72;4976996;28;45623;-43
2023/07/27 03:34:08;;;;;;;;;0.00;0.00;;;;;23.72;47.80;100472.16;4977958;28;45417;-40
2023/07/27 03:36:33;;;;;;;;;0.00;0.00;;;;;23.73;47.87;100471.19;4978050;28;45456;-41
2023/07/27 03:38:59;;;;;;;;;0.00;0.00;;;;;23.73;47.55;100478.28;4977925;28;45440;-41
2023/07/27 03:41:24;;;;;;;;;0.00;0.00;;;;;23.75;47.88;100471.94;4978059;28;45429;-43
2023/07/27 03:43:49;;;;;;;;;0.00;0.00;;;;;23.73;47.43;100471.19;4977606;28;46046;-41
2023/07/27 03:46:15;;;;;;;;;0.50;0.50;;;;;23.74;47.99;100464.09;4977659;28;45670;-40
2023/07/27 03:48:40;;;;;;;;;0.50;0.50;;;;;23.72;47.87;100472.16;4977422;28;49248;-41
2023/07/27 03:51:05;;;;;;;;;0.00;0.00;;;;;23.73;47.64;100471.19;4978233;28;45420;-40
2023/07/27 03:53:31;;;;;;;;;0.00;0.00;;;;;23.74;47.42;100474.66;4977360;28;49783;-42
2023/07/27 03:55:56;;;;;;;;;0.00;0.00;;;;;23.73;47.95;100473.84;4959930;28;45743;-40
2023/07/27 03:58:22;;;;;;;;;0.00;0.00;;;;;23.74;47.63;100466.72;4977636;28;45421;-42
2023/07/27 04:00:48;;;;;;;;;0.75;0.00;;;;;23.74;47.68;100466.72;4960212;28;45681;-41
2023/07/27 04:03:13;;;;;;;;;0.00;0.00;;;;;23.73;47.77;100468.56;4959793;28;47276;-40
2023/07/27 04:05:38;;;;;;;;;0.00;0.00;;;;;23.75;47.68;100460.50;4977114;28;58680;-42
2023/07/27 04:08:04;;;;;;;;;0.00;0.00;;;;;23.73;48.36;100457.97;4977466;28;45861;-41
2023/07/27 04:10:29;;;;;;;;;0.00;0.00;;;;;23.72;48.11;100464.22;4977723;28;45327;-52
2023/07/27 04:12:55;;;;;;;;;1.00;1.00;;;;;23.73;47.63;100473.84;4977352;28;45315;-44
2023/07/27 04:15:20;;;;;;;;;1.00;0.00;;;;;23.72;48.24;100472.16;4977005;28;45386;-42
2023/07/27 04:17:46;;;;;;;;;0.00;0.00;;;;;23.73;47.65;100478.28;4977173;28;45583;-47
2023/07/27 04:20:11;;;;;;;;;0.00;0.00;;;;;23.73;48.14;100472.97;4976848;28;55613;-43
2023/07/27 04:22:36;;;;;;;;;1.00;1.00;;;;;23.73;47.89;100470.34;4977443;28;46514;-46
2023/07/27 04:25:02;;;;;;;;;1.00;0.00;;;;;23.73;47.58;100468.56;4976616;28;57030;-47
2023/07/27 04:27:27;;;;;;;;;0.00;0.00;;;;;23.76;47.74;100475.41;4975942;28;45548;-50
2023/07/27 04:29:53;;;;;;;;;0.00;0.00;;;;;23.74;47.55;100459.66;4977287;28;45347;-47
2023/07/27 04:32:18;;;;;;;;;1.00;0.00;;;;;23.76;47.61;100470.94;4977066;28;45433;-45
2023/07/27 04:34:43;;;;;;;;;0.50;0.00;;;;;23.76;47.69;100460.38;4977028;28;45360;-52
2023/07/27 04:37:09;;;;;;;;;0.00;0.00;;;;;23.77;47.92;100458.56;4977591;28;45428;-42
2023/07/27 04:39:34;;;;;;;;;0.00;0.00;;;;;23.77;48.07;100466.50;4977253;28;45397;-45
2023/07/27 04:42:00;;;;;;;;;0.50;0.00;;;;;23.78;47.85;100470.84;4976811;28;46250;-46
2023/07/27 04:44:26;;;;;;;;;0.00;0.00;;;;;23.76;47.85;100462.19;4976794;28;45457;-45
2023/07/27 04:46:52;;;;;;;;;0.00;0.00;;;;;23.78;48.39;100463.75;4976984;28;45235;-47
2023/07/27 04:49:17;;;;;;;;;2.00;0.00;;;;;23.78;48.36;100469.03;4976970;28;45234;-44
2023/07/27 04:51:43;;;;;;;;;0.00;0.00;;;;;23.78;47.83;100471.69;4976660;28;45902;-45
2023/07/27 04:54:08;;;;;;;;;2.00;1.00;;;;;23.78;48.01;100470.84;4976764;28;45447;-46
2023/07/27 04:56:33;;;;;;;;;1.00;0.00;;;;;23.80;48.39;100476.00;4976854;28;45167;-46
2023/07/27 04:58:59;;;;;;;;;1.00;0.25;;;;;23.80;48.33;100476.00;4976452;28;48816;-44
2023/07/27 05:01:24;;;;;;;;;0.00;0.00;;;;;23.78;48.52;100466.38;4959129;28;46234;-44
2023/07/27 05:03:51;;;;;;;;;0.00;0.00;;;;;23.80;48.00;100470.72;4976649;28;45320;-43
2023/07/27 05:06:16;;;;;;;;;0.25;0.00;;;;;23.78;48.01;100466.38;4976600;28;45388;-43
2023/07/27 05:08:41;;;;;;;;;0.00;0.00;;;;;23.78;48.44;100471.69;4976870;28;45528;-42
2023/07/27 05:11:07;;;;;;;;;2.00;0.75;;;;;23.76;48.85;100468.31;4976580;28;46705;-40
2023/07/27 05:13:33;;;;;;;;;0.00;0.00;;;;;23.75;48.48;100453.41;4976590;28;45385;-43
2023/07/27 05:15:58;;;;;;;;;0.00;0.00;;;;;23.73;48.85;100460.63;4976840;28;45382;-42
2023/07/27 05:18:24;;;;;;;;;1.00;0.00;;;;;23.73;49.07;100457.09;4976515;28;45520;-43
2023/07/27 05:20:49;;;;;;;;;2.50;0.00;;;;;23.73;49.05;100460.63;4976435;28;46118;-44
2023/07/27 05:23:14;;;;;;;;;0.00;0.00;;;;;23.72;48.67;100466.88;4976275;28;45486;-39
2023/07/27 05:25:39;;;;;;;;;2.00;0.00;;;;;23.73;48.72;100465.91;4976697;28;45477;-39
2023/07/27 05:28:05;;;;;;;;;0.00;0.00;;;;;23.74;48.97;100464.94;4978074;28;45303;-44
2023/07/27 05:30:31;;;;;;;;;0.75;0.75;;;;;23.73;48.60;100454.47;4978750;28;66435;-42
2023/07/27 05:32:57;;;;;;;;;0.00;0.00;;;;;23.73;49.11;100457.09;4979630;28;45361;-42
2023/07/27 05:35:22;;;;;;;;;0.25;0.25;;;;;23.73;49.11;100463.25;4979750;28;45312;-42
2023/07/27 05:37:47;;;;;;;;;0.75;0.75;;;;;23.73;48.71;100459.75;4979884;28;45572;-40
2023/07/27 05:40:15;;;;;;;;;2.00;1.00;;;;;23.72;48.59;100460.72;4979749;28;45719;-42
2023/07/27 05:42:42;;;;;;;;;0.25;0.25;;;;;23.73;48.52;100462.41;4979804;28;45354;-39
2023/07/27 05:45:08;;;;;;;;;1.00;1.00;;;;;23.72;48.59;100468.66;4979597;28;45318;-43
2023/07/27 05:47:33;;;;;;;;;1.00;1.00;;;;;23.73;48.55;100459.75;4962477;28;45326;-42
2023/07/27 05:49:59;;;;;;;;;0.00;0.00;;;;;23.73;48.56;100467.69;4979334;28;45352;-42
2023/07/27 05:52:25;;;;;;;;;0.00;0.00;;;;;23.74;49.04;100461.44;4979203;28;45374;-42
2023/07/27 05:54:51;;;;;;;;;1.00;0.00;;;;;23.73;48.49;100465.03;4962004;28;45296;-39
2023/07/27 05:57:16;;;;;;;;;1.00;1.00;;;;;23.73;48.47;100457.09;4962324;28;45484;-43
2023/07/27 05:59:41;;;;;;;;;2.00;0.00;;;;;23.72;48.52;100458.94;4979497;28;45354;-39
2023/07/27 06:02:07;;;;;;;;;1.75;1.00;;;;;23.72;48.93;100456.28;4979315;28;45390;-39
2023/07/27 06:04:32;;;;;;;;;0.50;0.00;;;;;23.73;48.58;100455.31;4979316;28;45371;-41
2023/07/27 06:06:58;;;;;;;;;0.00;0.00;;;;;23.72;48.60;100460.72;4979385;28;45599;-40
2023/07/27 06:09:24;;;;;;;;;0.00;0.00;;;;;23.72;48.76;100456.28;4978382;28;46005;-40
2023/07/27 06:11:49;;;;;;;;;1.00;1.00;;;;;23.72;48.94;100455.41;4979005;28;45299;-40
2023/07/27 06:14:15;;;;;;;;;0.00;0.00;;;;;23.73;48.54;100452.69;4979398;28;45432;-42
2023/07/27 06:16:40;;;;;;;;;1.00;0.00;;;;;23.73;49.02;100455.31;4979150;28;45208;-39
2023/07/27 06:19:05;;;;;;;;;0.25;0.25;;;;;23.73;49.17;100452.69;4978224;28;62677;-41
2023/07/27 06:21:31;;;;;;;;;0.50;0.00;;;;;23.73;49.02;100452.69;4978930;28;45501;-42
2023/07/27 06:23:57;;;;;;;;;0.00;0.00;;;;;23.74;49.10;100464.09;4979068;28;45400;-39
2023/07/27 06:26:22;;;;;;;;;0.00;0.00;;;;;23.73;49.05;100463.25;4978716;28;54616;-39
2023/07/27 06:28:47;;;;;;;;;1.00;1.00;;;;;23.72;48.86;100455.41;4979054;28;46199;-44
2023/07/27 06:31:13;;;;;;;;;1.00;1.00;;;;;23.72;48.83;100453.63;4978898;28;45467;-38
2023/07/27 06:33:38;;;;;;;;;1.00;0.00;;;;;23.73;48.62;100457.97;4978715;28;46851;-43
2023/07/27 06:36:06;;;;;;;;;1.00;1.00;;;;;23.71;48.68;100438.72;4979123;28;45388;-41
2023/07/27 06:38:32;;;;;;;;;0.00;0.00;;;;;23.73;48.76;100465.03;4961136;28;48092;-39
2023/07/27 06:40:57;;;;;;;;;0.00;0.00;;;;;23.71;48.50;100462.53;4978639;28;45290;-40
2023/07/27 06:43:23;;;;;;;;;0.00;0.00;;;;;23.72;48.63;100472.16;4978834;28;45198;-39
2023/07/27 06:45:48;;;;;;;;;0.75;0.25;;;;;23.73;48.65;100479.13;4979297;28;45222;-39
2023/07/27 06:48:14;;;;;;;;;0.75;0.75;;;;;23.74;48.88;100477.31;4978400;28;46317;-39
2023/07/27 06:50:39;;;;;;;;;0.00;0.00;;;;;23.74;48.94;100486.13;4978415;28;45727;-43
2023/07/27 06:53:05;;;;;;;;;1.00;0.75;;;;;23.74;48.63;100475.53;4977988;28;58700;-40
2023/07/27 06:55:30;;;;;;;;;4.00;0.75;;;;;23.74;49.06;100467.59;4978386;28;45544;-39
2023/07/27 06:57:56;;;;;;;;;1.00;1.00;;;;;23.74;49.00;100464.94;4978282;28;46016;-43
2023/07/27 07:00:22;;;;;;;;;0.00;0.00;;;;;23.73;48.78;100471.19;4978293;28;45291;-41
2023/07/27 07:02:47;;;;;;;;;1.75;0.00;;;;;23.74;48.61;100467.59;4978766;28;45469;-42
2023/07/27 07:05:13;;;;;;;;;1.00;1.00;;;;;23.73;48.96;100463.25;4978617;28;45553;-42
2023/07/27 07:07:38;;;;;;;;;2.00;1.00;;;;;23.74;48.42;100475.53;4960473;28;47417;-40
2023/07/27 07:10:05;;;;;;;;;3.00;1.50;;;;;23.74;48.71;100467.59;4977935;28;45283;-40
2023/07/27 07:12:30;;;;;;;;;1.25;0.50;;;;;23.74;48.73;100462.31;4978276;28;45318;-39
2023/07/27 07:14:55;;;;;;;;;0.00;0.00;;;;;23.76;48.68;100472.75;4978448;28;45520;-41
2023/07/27 07:17:21;;;;;;;;;0.00;0.00;;;;;23.74;48.63;100470.25;4978150;28;46572;-42
2023/07/27 07:19:47;;;;;;;;;1.00;1.00;;;;;23.75;49.20;100471.94;4978375;28;45350;-43
2023/07/27 07:22:12;;;;;;;;;0.00;0.00;;;;;23.75;48.94;100466.66;4978076;28;45239;-40
2023/07/27 07:24:38;;;;;;;;;0.75;0.50;;;;;23.75;48.98;100466.66;4978289;28;45546;-42
2023/07/27 07:27:03;;;;;;;;;1.75;1.75;;;;;23.75;48.96;100468.44;4977879;28;47175;-42
2023/07/27 07:29:28;;;;;;;;;1.00;0.00;;;;;23.74;48.47;100480.81;4977668;28;45168;-40
2023/07/27 07:31:54;;;;;;;;;1.75;0.25;;;;;23.74;48.52;100470.25;4978022;28;45302;-42
2023/07/27 07:34:19;;;;;;;;;1.00;1.00;;;;;23.73;48.32;100473.84;4978408;28;45514;-40
2023/07/27 07:36:44;;;;;;;;;3.25;1.00;;;;;23.75;48.48;100477.22;4977535;28;46166;-42
2023/07/27 07:39:10;;;;;;;;;2.00;1.25;;;;;23.73;48.40;100465.03;4977664;28;45299;-42
2023/07/27 07:41:35;;;;;;;;;3.00;2.00;;;;;23.73;47.62;100475.63;4977765;28;45260;-46
2023/07/27 07:44:00;;;;;;;;;1.25;1.00;;;;;23.71;47.95;100486.34;4977840;28;45172;-40
2023/07/27 07:46:26;;;;;;;;;1.50;1.50;;;;;23.74;47.92;100493.19;4977328;28;51328;-40
2023/07/27 07:48:51;;;;;;;;;1.50;1.50;;;;;23.71;47.50;100498.72;4977591;28;45369;-41
2023/07/27 07:51:16;;;;;;;;;2.00;2.00;;;;;23.70;47.51;100486.47;4976685;28;55773;-41
2023/07/27 07:53:42;;;;;;;;;3.00;2.00;;;;;23.71;46.94;100483.69;4977217;28;51498;-43
2023/07/27 07:56:15;;;;;;;;;1.00;1.00;;;;;23.69;47.39;100480.31;4977404;28;45434;-40
2023/07/27 07:58:41;;;;;;;;;3.00;2.00;;;;;23.70;47.05;100502.34;4977547;28;45362;-41
2023/07/27 08:01:06;;;;;;;;;2.25;1.50;;;;;23.66;46.79;100471.75;4977560;28;45373;-39
2023/07/27 08:03:32;;;;;;;;;1.00;1.00;;;;;23.69;46.80;100496.19;4977629;28;45434;-40
2023/07/27 08:05:58;;;;;;;;;1.00;1.00;;;;;23.70;46.56;100484.66;4977167;28;46196;-39
2023/07/27 08:08:23;;;;;;;;;1.00;1.00;;;;;23.70;46.95;100479.34;4977569;28;45399;-42
2023/07/27 08:10:49;;;;;;;;;3.00;1.75;;;;;23.68;47.01;100481.28;4977348;28;45520;-39
2023/07/27 08:13:14;;;;;;;;;1.00;1.00;;;;;23.71;46.77;100482.84;4977560;28;45372;-40
2023/07/27 08:15:39;;;;;;;;;2.50;1.00;;;;;23.70;46.63;100483.81;4977276;28;45444;-40
2023/07/27 08:18:05;;;;;;;;;2.75;1.00;;;;;23.71;46.30;100482.84;4977125;28;45464;-42
2023/07/27 08:20:30;;;;;;;;;3.00;1.00;;;;;23.70;46.52;100476.72;4975375;28;45361;-39
2023/07/27 08:22:56;;;;;;;;;2.25;1.00;;;;;23.69;46.61;100482.97;4977359;28;45559;-39
2023/07/27 08:25:21;;;;;;;;;2.00;1.00;;;;;23.69;46.23;100472.38;4977294;28;46315;-42
2023/07/27 08:27:47;;;;;;;;;3.00;2.00;;;;;23.70;46.82;100476.72;4976932;28;45246;-40
2023/07/27 08:30:13;;;;;;;;;2.00;1.50;;;;;23.69;46.80;100472.38;4977002;28;45378;-39
2023/07/27 08:32:40;;;;;;;;;1.00;1.00;;;;;23.68;46.38;100462.75;4977271;28;45270;-41
2023/07/27 08:35:06;;;;;;;;;2.00;1.00;;;;;23.69;46.34;100461.78;4959283;28;48090;-42
2023/07/27 08:37:31;;;;;;;;;1.50;1.50;;;;;23.69;46.24;100466.25;4977169;28;45386;-43
2023/07/27 08:39:58;;;;;;;;;3.00;1.00;;;;;23.69;46.78;100469.72;4976932;28;45290;-39
2023/07/27 08:42:24;;;;;;;;;1.00;1.00;;;;;23.68;46.35;100459.28;4977471;28;45527;-40
2023/07/27 08:44:49;;;;;;;;;1.00;1.00;;;;;23.67;46.67;100460.22;4976748;28;45375;-39
2023/07/27 08:47:15;;;;;;;;;2.00;1.00;;;;;23.68;46.63;100468.03;4976712;28;45306;-40
2023/07/27 08:49:42;;;;;;;;;1.00;1.00;;;;;23.69;46.66;100464.44;4976686;28;45482;-43
2023/07/27 08:52:11;;;;;;;;;1.00;0.75;;;;;23.71;46.82;100467.81;4976994;28;45438;-40
2023/07/27 08:54:37;;;;;;;;;2.75;0.00;;;;;23.70;46.14;100457.38;4976518;28;46091;-42
2023/07/27 08:57:02;;;;;;;;;1.00;0.25;;;;;23.71;46.30;100465.16;4976773;28;45358;-38
2023/07/27 08:59:28;;;;;;;;;0.25;0.25;;;;;23.72;46.70;100450.13;4976675;28;45468;-42
2023/07/27 09:01:54;;;;;;;;;3.00;1.25;;;;;23.70;46.67;100458.19;4978250;28;45341;-41
2023/07/27 09:04:19;;;;;;;;;2.00;2.00;;;;;23.72;46.44;100453.63;4980007;28;45349;-42
2023/07/27 09:06:48;;;;;;;;;1.25;1.25;;;;;23.72;46.20;100450.13;4980001;28;45376;-42
2023/07/27 09:09:16;;;;;;;;;0.00;0.00;;;;;23.70;46.75;100458.19;4980036;28;45294;-40
2023/07/27 09:11:42;;;;;;;;;2.00;1.00;;;;;23.71;46.68;100469.59;4980213;28;45536;-42
2023/07/27 09:14:07;;;;;;;;;2.25;1.00;;;;;23.71;46.21;100470.47;4979728;28;46373;-42
2023/07/27 09:16:34;;;;;;;;;1.00;1.00;;;;;23.70;46.55;100468.78;4979922;28;45453;-41
2023/07/27 09:19:00;;;;;;;;;0.25;0.25;;;;;23.72;46.57;100472.16;4979655;28;45436;-43
2023/07/27 09:21:27;;;;;;;;;1.00;1.00;;;;;23.73;46.61;100472.97;4980447;28;45549;-42
2023/07/27 09:23:52;;;;;;;;;0.50;0.00;;;;;23.71;46.19;100472.25;4979674;28;45986;-39
2023/07/27 09:26:26;;;;;;;;;2.75;2.00;;;;;23.72;46.65;100473.94;4979795;28;45243;-42
2023/07/27 09:28:53;;;;;;;;;1.25;1.25;;;;;23.74;46.14;100474.66;4979666;28;45232;-39
2023/07/27 09:31:19;;;;;;;;;6.00;1.00;;;;;23.73;46.79;100489.72;4979951;28;45267;-42
2023/07/27 09:33:44;;;;;;;;;1.00;1.00;;;;;23.72;46.29;100474.81;4962239;28;46789;-45
2023/07/27 09:36:10;;;;;;;;;1.50;1.50;;;;;23.73;46.18;100470.34;4979221;28;55016;-39
2023/07/27 09:38:36;;;;;;;;;0.25;0.25;;;;;23.71;46.69;100475.75;4979865;28;45365;-40
2023/07/27 09:41:08;;;;;;;;;1.00;1.00;;;;;23.73;46.13;100465.91;4979964;28;45576;-39
2023/07/27 09:43:39;;;;;;;;;1.00;0.00;;;;;23.73;45.94;100473.84;4979448;28;46056;-40
2023/07/27 09:46:05;;;;;;;;;0.00;0.00;;;;;23.73;46.13;100473.84;4979696;28;45342;-41
2023/07/27 09:48:32;;;;;;;;;4.00;1.00;;;;;23.72;46.13;100464.22;4979772;28;45334;-42
2023/07/27 09:51:01;;;;;;;;;1.00;1.00;;;;;23.72;46.53;100461.56;4980003;28;45455;-42
2023/07/27 09:53:30;;;;;;;;;2.50;1.00;;;;;23.72;46.31;100466.88;4979594;28;45349;-40
2023/07/27 09:55:56;;;;;;;;;2.00;1.00;;;;;23.74;46.36;100454.38;4979305;28;45342;-40
2023/07/27 09:58:22;;;;;;;;;2.00;2.00;;;;;23.73;46.54;100452.69;4978071;28;45468;-42
2023/07/27 10:00:47;;;;;;;;;2.00;0.75;;;;;23.73;46.53;100457.97;4979553;28;45425;-40
2023/07/27 10:03:13;;;;;;;;;1.00;1.00;;;;;23.74;46.25;100469.38;4979176;28;45251;-39
2023/07/27 10:05:40;;;;;;;;;1.50;1.00;;;;;23.75;45.92;100461.34;4979317;28;45285;-40
2023/07/27 10:08:06;;;;;;;;;1.00;1.00;;;;;23.74;46.39;100467.59;4979514;28;45860;-41
2023/07/27 10:10:39;;;;;;;;;0.25;0.25;;;;;23.74;45.99;100457.00;4979877;28;45461;-39
2023/07/27 10:13:10;;;;;;;;;2.00;1.00;;;;;23.75;45.97;100453.41;4978721;28;46358;-39
2023/07/27 10:15:41;;;;;;;;;1.25;1.25;;;;;23.76;46.10;100463.00;4979147;28;45346;-41
2023/07/27 10:18:07;;;;;;;;;0.00;0.00;;;;;23.76;46.23;100464.81;4978558;28;45392;-41
2023/07/27 10:20:33;;;;;;;;;2.00;1.25;;;;;23.76;46.46;100468.31;4978462;28;45362;-42
2023/07/27 10:23:18;;;;;;;;;2.00;1.00;;;;;23.76;46.07;100465.66;4978052;28;46234;-40
2023/07/27 10:25:56;;;;;;;;;1.25;1.00;;;;;23.76;46.11;100457.72;4977878;28;45480;-39
2023/07/27 10:28:43;;;;;;;;;2.25;1.75;;;;;23.76;45.86;100465.66;4976616;28;45351;-40
2023/07/27 10:31:19;;;;;;;;;1.00;1.00;;;;;23.76;46.27;100459.53;4977913;28;45391;-40
2023/07/27 10:33:48;;;;;;;;;2.00;1.00;;;;;23.76;46.46;100456.88;4977544;28;47310;-39
2023/07/27 10:36:15;;;;;;;;;2.00;1.00;;;;;23.77;46.17;100450.63;4977556;28;45781;-41
2023/07/27 10:38:51;;;;;;;;;3.00;1.00;;;;;23.77;46.22;100454.13;4977596;28;45348;-39
2023/07/27 10:41:23;;;;;;;;;1.25;1.25;;;;;23.77;46.37;100464.69;4977674;28;45357;-39
2023/07/27 10:44:07;;;;;;;;;2.00;2.00;;;;;23.78;45.98;100463.75;4977431;28;46397;-41
2023/07/27 10:46:35;;;;;;;;;3.50;2.00;;;;;23.77;45.86;100451.47;4976406;28;46641;-40
2023/07/27 10:49:12;;;;;;;;;3.75;1.50;;;;;23.78;46.42;100460.25;4977825;28;45358;-39
2023/07/27 10:51:38;;;;;;;;;2.00;2.00;;;;;23.76;45.98;100456.88;4977622;28;45362;-40
2023/07/27 10:54:04;;;;;;;;;1.75;1.25;;;;;23.77;46.17;100461.22;4977527;28;46180;-40
2023/07/27 10:56:31;;;;;;;;;1.25;1.25;;;;;23.77;46.26;100455.94;4977307;28;45353;-41
2023/07/27 10:59:01;;;;;;;;;4.50;2.00;;;;;23.78;45.80;100460.25;4959883;28;45382;-41
2023/07/27 11:01:33;;;;;;;;;3.50;1.50;;;;;23.80;46.42;100470.72;4977380;28;45488;-41
2023/07/27 11:03:59;;;;;;;;;1.75;1.00;;;;;23.79;46.28;100456.66;4976983;28;46162;-39
2023/07/27 11:06:28;;;;;;;;;1.75;1.75;;;;;23.80;46.52;100463.66;4977022;28;45393;-41
2023/07/27 11:08:54;;;;;;;;;1.00;1.00;;;;;23.80;46.21;100465.44;4977027;28;45365;-39
2023/07/27 11:11:21;;;;;;;;;2.25;1.00;;;;;23.78;46.17;100463.75;4977204;28;45412;-40
2023/07/27 11:13:47;;;;;;;;;1.00;1.00;;;;;23.74;46.14;100453.50;4976781;28;46649;-43
2023/07/27 11:16:13;;;;;;;;;1.00;1.00;;;;;23.78;45.94;100450.50;4976816;28;45382;-39
2023/07/27 11:18:40;;;;;;;;;1.00;1.00;;;;;23.80;46.30;100462.78;4911054;28;1325444;-40
2023/07/27 11:21:07;;;;;;;;;2.50;2.50;;;;;23.78;46.23;100455.81;4959135;28;45689;-41
2023/07/27 11:23:40;;;;;;;;;1.25;1.00;;;;;23.79;46.71;100461.97;4958722;28;46610;-41